createdAt,value
2023-01-12T00:01:12.529Z,100993.25
2023-01-12T00:04:17.209Z,100986.16
2023-01-12T00:07:20.834Z,100989.69
2023-01-12T00:10:25.821Z,100990.56
2023-01-12T00:13:32.512Z,100986.13
2023-01-12T00:16:39.640Z,100990.53
2023-01-12T00:19:42.905Z,100986.13
2023-01-12T00:22:49.832Z,100997.62
2023-01-12T00:25:54.429Z,100985.28
2023-01-12T00:28:58.055Z,100979.97
2023-01-12T00:32:01.950Z,100978.19
2023-01-12T00:35:05.752Z,100989.69
2023-01-12T00:38:10.264Z,100987.03
2023-01-12T00:41:37.096Z,101002.00
2023-01-12T00:44:59.488Z,100995.69
2023-01-12T00:48:03.067Z,100997.41
2023-01-12T00:51:06.334Z,101004.44
2023-01-12T00:54:09.771Z,100999.97
2023-01-12T00:57:15.030Z,101001.72
2023-01-12T01:00:18.993Z,100999.87
2023-01-12T01:03:22.452Z,100995.41
2023-01-12T01:06:27.060Z,100995.38
2023-01-12T01:09:31.066Z,100999.78
2023-01-12T01:12:34.876Z,100996.16
2023-01-12T01:15:38.129Z,101004.06
2023-01-12T01:18:42.161Z,101017.28
2023-01-12T01:21:45.676Z,101021.66
2023-01-12T01:24:49.313Z,101018.06
2023-01-12T01:27:52.476Z,101014.50
2023-01-12T01:31:13.970Z,101022.41
2023-01-12T01:34:18.321Z,101018.84
2023-01-12T01:37:22.017Z,101029.44
2023-01-12T01:40:25.347Z,101021.47
2023-01-12T01:43:47.022Z,101031.19
2023-01-12T01:46:58.635Z,101022.31
2023-01-12T01:50:06.056Z,101027.63
2023-01-12T01:53:18.448Z,101030.28
2023-01-12T01:56:32.657Z,101013.53
2023-01-12T01:59:40.192Z,101017.06
2023-01-12T02:02:47.320Z,101018.81
2023-01-12T02:05:51.469Z,101028.53
2023-01-12T02:09:02.565Z,101029.41
2023-01-12T02:12:25.704Z,101031.16
2023-01-12T02:15:54.429Z,101025.84
2023-01-12T02:19:43.072Z,101032.03
2023-01-12T02:23:06.067Z,101047.06
2023-01-12T02:26:41.190Z,101044.34
2023-01-12T02:30:36.318Z,101031.94
2023-01-12T02:33:54.194Z,101036.31
2023-01-12T02:37:21.923Z,101035.34
2023-01-12T02:40:35.104Z,101036.16
2023-01-12T02:43:40.286Z,101035.22
2023-01-12T02:46:51.141Z,101030.75
2023-01-12T02:49:59.481Z,101032.41
2023-01-12T02:53:10.572Z,101021.72
2023-01-12T02:56:20.090Z,101012.81
2023-01-12T02:59:30.434Z,101019.87
2023-01-12T03:02:34.553Z,101009.19
2023-01-12T03:05:42.722Z,101003.81
2023-01-12T03:08:49.375Z,101011.75
2023-01-12T03:11:58.150Z,101002.81
2023-01-12T03:15:06.782Z,101001.94
2023-01-12T03:18:16.840Z,100998.41
2023-01-12T03:21:29.550Z,100999.13
2023-01-12T03:24:39.726Z,101001.75
2023-01-12T03:27:48.961Z,100998.16
2023-01-12T03:31:12.223Z,101004.34
2023-01-12T03:34:16.006Z,100995.38
2023-01-12T03:37:31.554Z,100999.78
2023-01-12T03:40:46.108Z,100995.31
2023-01-12T03:43:52.962Z,101004.19
2023-01-12T03:47:03.856Z,100997.94
2023-01-12T03:50:12.992Z,100999.66
2023-01-12T03:53:21.325Z,100996.19
2023-01-12T03:56:29.824Z,100990.03
2023-01-12T03:59:33.436Z,100983.97
2023-01-12T04:02:37.077Z,100993.75
2023-01-12T04:05:43.848Z,100987.50
2023-01-12T04:08:47.252Z,101005.31
2023-01-12T04:12:20.267Z,101006.13
2023-01-12T04:15:23.456Z,101011.47
2023-01-12T04:18:26.877Z,101008.81
2023-01-12T04:21:48.984Z,101004.38
2023-01-12T04:24:52.890Z,101007.06
2023-01-12T04:28:02.160Z,100998.16
2023-01-12T04:31:06.038Z,100991.06
2023-01-12T04:34:09.254Z,100996.31
2023-01-12T04:37:13.395Z,100999.87
2023-01-12T04:40:17.738Z,101001.62
2023-01-12T04:43:21.359Z,101001.62
2023-01-12T04:46:24.667Z,100995.44
2023-01-12T04:49:28.169Z,100994.56
2023-01-12T04:52:31.314Z,101012.28
2023-01-12T04:55:36.782Z,100997.22
2023-01-12T04:58:40.077Z,101001.62
2023-01-12T05:01:43.773Z,101004.28
2023-01-12T05:04:48.022Z,101013.19
2023-01-12T05:08:10.407Z,101006.09
2023-01-12T05:11:13.271Z,101020.25
2023-01-12T05:14:16.415Z,101020.22
2023-01-12T05:17:19.387Z,101023.75
2023-01-12T05:20:24.673Z,101009.56
2023-01-12T05:23:27.847Z,101005.97
2023-01-12T05:26:31.075Z,101013.06
2023-01-12T05:29:34.086Z,101015.75
2023-01-12T05:32:38.494Z,101019.28
2023-01-12T05:35:42.051Z,101028.16
2023-01-12T05:38:45.312Z,101038.72
2023-01-12T05:42:07.730Z,101030.63
2023-01-12T05:45:11.636Z,101033.22
2023-01-12T05:48:14.862Z,101025.19
2023-01-12T05:51:19.134Z,101034.00
2023-01-12T05:54:23.515Z,101033.13
2023-01-12T05:57:28.992Z,101036.66
2023-01-12T06:00:32.606Z,101031.31
2023-01-12T06:03:37.548Z,101027.72
2023-01-12T06:06:41.427Z,101025.94
2023-01-12T06:09:45.532Z,101032.09
2023-01-12T06:13:12.227Z,101031.25
2023-01-12T06:16:15.952Z,101028.53
2023-01-12T06:19:19.216Z,101026.75
2023-01-12T06:22:23.227Z,101029.41
2023-01-12T06:25:26.441Z,101035.66
2023-01-12T06:28:30.164Z,101039.19
2023-01-12T06:31:33.986Z,101042.69
2023-01-12T06:34:38.057Z,101046.22
2023-01-12T06:37:41.285Z,101054.16
2023-01-12T06:40:45.374Z,101057.69
2023-01-12T06:43:48.489Z,101054.09
2023-01-12T06:46:52.065Z,101059.31
2023-01-12T06:49:56.499Z,101053.97
2023-01-12T06:53:02.311Z,101053.06
2023-01-12T06:56:05.856Z,101068.13
2023-01-12T06:59:13.645Z,101089.47
2023-01-12T07:02:17.331Z,101085.84
2023-01-12T07:05:21.216Z,101076.94
2023-01-12T07:08:24.794Z,101089.41
2023-01-12T07:11:28.421Z,101092.00
2023-01-12T07:14:31.879Z,101087.53
2023-01-12T07:17:35.357Z,101093.72
2023-01-12T07:20:38.821Z,101099.03
2023-01-12T07:23:43.864Z,101092.72
2023-01-12T07:26:50.593Z,101097.09
2023-01-12T07:29:54.411Z,101094.37
2023-01-12T07:33:06.733Z,101086.28
2023-01-12T07:36:10.423Z,101093.31
2023-01-12T07:39:13.699Z,101090.56
2023-01-12T07:42:26.497Z,101104.66
2023-01-12T07:45:30.490Z,101102.78
2023-01-12T07:48:35.196Z,101112.53
2023-01-12T07:51:41.900Z,101107.13
2023-01-12T07:54:46.482Z,101114.97
2023-01-12T07:58:03.475Z,101117.59
2023-01-12T08:01:06.859Z,101118.37
2023-01-12T08:04:11.969Z,101118.25
2023-01-12T08:07:15.344Z,101103.91
2023-01-12T08:10:23.758Z,101112.56
2023-01-12T08:13:26.881Z,101111.63
2023-01-12T08:16:38.121Z,101120.56
2023-01-12T08:19:51.035Z,101122.16
2023-01-12T08:23:01.220Z,101114.84
2023-01-12T08:26:10.486Z,101110.38
2023-01-12T08:29:44.123Z,101109.38
2023-01-12T08:32:47.947Z,101112.66
2023-01-12T08:35:51.582Z,101107.94
2023-01-12T08:38:56.601Z,101114.94
2023-01-12T08:42:00.131Z,101120.16
2023-01-12T08:45:07.204Z,101116.47
2023-01-12T08:48:12.378Z,101109.00
2023-01-12T08:51:15.649Z,101107.00
2023-01-12T08:54:20.935Z,101105.91
2023-01-12T08:57:24.473Z,101106.62
2023-01-12T09:00:28.134Z,101104.87
2023-01-12T09:03:31.319Z,101107.03
2023-01-12T09:06:40.540Z,101108.66
2023-01-12T09:09:43.824Z,101109.31
2023-01-12T09:12:47.374Z,101111.63
2023-01-12T09:16:12.362Z,101109.59
2023-01-12T09:19:16.310Z,101102.97
2023-01-12T09:22:20.114Z,101100.88
2023-01-12T09:25:24.008Z,101112.19
2023-01-12T09:28:27.460Z,101099.50
2023-01-12T09:31:33.047Z,101099.22
2023-01-12T09:34:36.345Z,101095.94
2023-01-12T09:37:43.260Z,101099.88
2023-01-12T09:40:46.587Z,101107.63
2023-01-12T09:44:09.082Z,101098.22
2023-01-12T09:47:24.008Z,101097.44
2023-01-12T09:50:35.649Z,101098.31
2023-01-12T09:53:41.136Z,101097.19
2023-01-12T09:56:52.701Z,101097.19
2023-01-12T10:00:12.889Z,101087.81
2023-01-12T10:03:38.675Z,101080.81
2023-01-12T10:06:42.308Z,101087.87
2023-01-12T10:09:46.120Z,101082.91
2023-01-12T10:12:59.873Z,101081.16
2023-01-12T10:16:16.905Z,101083.28
2023-01-12T10:19:37.655Z,101072.69
2023-01-12T10:23:01.069Z,101074.25
2023-01-12T10:26:12.184Z,101074.97
2023-01-12T10:29:15.853Z,101074.78
2023-01-12T10:32:20.415Z,101074.44
2023-01-12T10:35:25.566Z,101065.06
2023-01-12T10:38:58.029Z,101061.22
2023-01-12T10:42:33.342Z,101052.72
2023-01-12T10:45:36.706Z,101069.00
2023-01-12T10:48:48.939Z,101061.63
2023-01-12T10:52:25.908Z,101060.87
2023-01-12T10:55:33.966Z,101063.63
2023-01-12T10:58:37.560Z,101059.97
2023-01-12T11:02:13.390Z,101056.34
2023-01-12T11:05:30.896Z,101053.78
2023-01-12T11:08:34.558Z,101045.59
2023-01-12T11:11:38.748Z,101051.69
2023-01-12T11:14:42.968Z,101042.56
2023-01-12T11:18:32.556Z,101045.91
2023-01-12T11:21:41.235Z,101033.63
2023-01-12T11:24:53.088Z,101026.72
2023-01-12T11:28:12.383Z,101019.34
2023-01-12T11:31:21.291Z,101021.56
2023-01-12T11:34:34.465Z,101022.66
2023-01-12T11:37:40.618Z,101016.50
2023-01-12T11:40:45.801Z,101018.41
2023-01-12T11:44:15.256Z,101019.91
2023-01-12T11:47:27.983Z,101011.91
2023-01-12T11:50:35.845Z,101008.34
2023-01-12T11:53:41.587Z,101008.81
2023-01-12T11:57:11.967Z,100998.84
2023-01-12T12:00:31.773Z,101008.47
2023-01-12T12:04:01.814Z,100998.56
2023-01-12T12:07:53.552Z,100994.19
2023-01-12T12:11:02.015Z,100994.31
2023-01-12T12:14:24.155Z,101003.41
2023-01-12T12:17:58.517Z,101005.94
2023-01-12T12:21:40.433Z,100998.50
2023-01-12T12:25:06.594Z,101003.47
2023-01-12T12:28:16.699Z,100995.31
2023-01-12T12:31:50.561Z,100997.78
2023-01-12T12:35:26.737Z,100996.00
2023-01-12T12:38:55.429Z,100990.00
2023-01-12T12:42:23.597Z,100990.75
2023-01-12T12:45:59.056Z,100983.22
2023-01-12T12:49:12.208Z,100980.19
2023-01-12T12:52:15.799Z,100981.06
2023-01-12T12:55:20.582Z,100980.19
2023-01-12T12:58:27.222Z,100975.28
2023-01-12T13:16:20.839Z,100972.16
2023-01-12T13:19:39.027Z,100972.16
2023-01-12T13:22:42.017Z,100970.69
2023-01-12T13:25:55.698Z,100962.37
2023-01-12T13:29:24.714Z,100967.09
2023-01-12T13:32:36.220Z,100977.16
2023-01-12T13:35:52.590Z,100972.16
2023-01-12T13:39:06.996Z,100959.63
2023-01-12T13:42:38.730Z,100987.94
2023-01-12T13:46:02.124Z,100995.00
2023-01-12T13:49:30.364Z,100984.50
2023-01-12T13:52:40.156Z,100985.13
2023-01-12T13:55:56.714Z,100979.75
2023-01-12T13:59:02.731Z,100985.00
2023-01-12T14:02:19.281Z,100982.56
2023-01-12T14:05:44.763Z,100987.28
2023-01-12T14:08:53.289Z,100978.34
2023-01-12T14:12:32.813Z,100981.09
2023-01-12T14:15:58.637Z,100975.00
2023-01-12T14:19:25.722Z,100977.66
2023-01-12T14:22:31.927Z,100976.28
2023-01-12T14:25:35.721Z,100980.00
2023-01-12T14:28:42.831Z,100969.78
2023-01-12T14:31:49.719Z,100954.03
2023-01-12T14:34:55.627Z,100974.66
2023-01-12T14:38:01.347Z,100975.63
2023-01-12T14:41:31.733Z,100973.72
2023-01-12T14:44:57.698Z,100968.00
2023-01-12T14:48:19.716Z,100980.03
2023-01-12T14:51:34.445Z,100983.00
2023-01-12T14:54:37.580Z,100980.97
2023-01-12T14:57:41.638Z,100965.66
2023-01-12T15:00:48.051Z,100958.91
2023-01-12T15:03:55.463Z,100954.00
2023-01-12T15:07:08.254Z,100975.63
2023-01-12T15:10:12.503Z,100977.88
2023-01-12T15:13:28.970Z,100976.53
2023-01-12T15:16:51.168Z,100974.47
2023-01-12T15:20:13.126Z,100973.09
2023-01-12T15:23:36.139Z,100984.19
2023-01-12T15:26:49.370Z,100980.97
2023-01-12T15:29:57.370Z,100978.72
2023-01-12T15:33:00.713Z,100975.63
2023-01-12T15:36:04.440Z,100976.09
2023-01-12T15:39:13.660Z,100977.03
2023-01-12T15:42:26.465Z,100978.12
2023-01-12T15:45:43.718Z,100986.16
2023-01-12T15:48:47.417Z,100980.28
2023-01-12T15:51:52.955Z,100974.16
2023-01-12T15:54:56.517Z,100988.97
2023-01-12T15:57:59.661Z,100994.41
2023-01-12T16:01:06.975Z,100995.53
2023-01-12T16:07:48.816Z,100992.97
2023-01-12T16:11:11.918Z,100991.41
2023-01-12T16:14:18.819Z,100982.78
2023-01-12T16:17:22.476Z,100997.78
2023-01-12T16:20:28.300Z,101002.53
2023-01-12T16:23:37.735Z,100992.22
2023-01-12T16:26:44.262Z,100995.03
2023-01-12T16:29:48.100Z,101006.63
2023-01-12T16:32:51.455Z,101010.31
2023-01-12T16:35:56.562Z,101015.81
2023-01-12T16:39:00.861Z,101015.03
2023-01-12T16:42:04.572Z,101009.00
2023-01-12T16:45:08.416Z,101015.25
2023-01-12T16:48:11.951Z,101012.72
2023-01-12T16:51:17.793Z,101018.88
2023-01-12T16:54:21.581Z,101018.00
2023-01-12T16:57:24.796Z,101024.09
2023-01-12T17:00:28.471Z,101026.78
2023-01-12T17:03:32.190Z,101017.19
2023-01-12T17:06:39.277Z,101035.81
2023-01-12T17:09:42.719Z,101027.03
2023-01-12T17:12:54.471Z,101029.81
2023-01-12T17:16:06.724Z,100992.03
2023-01-12T17:19:12.191Z,101025.59
2023-01-12T17:22:16.075Z,100997.41
2023-01-12T17:25:19.835Z,100993.91
2023-01-12T17:28:23.199Z,100967.34
2023-01-12T17:31:26.906Z,101027.41
2023-01-12T17:34:35.701Z,101029.19
2023-01-12T17:37:39.319Z,101029.13
2023-01-12T17:40:43.745Z,101016.72
2023-01-12T17:43:47.399Z,101032.66
2023-01-12T17:46:51.003Z,101040.72
2023-01-12T17:49:54.948Z,101034.63
2023-01-12T17:52:58.392Z,101032.97
2023-01-12T17:56:04.034Z,101036.53
2023-01-12T17:59:08.189Z,100985.47
2023-01-12T18:02:20.096Z,101018.16
2023-01-12T18:05:27.650Z,101041.13
2023-01-12T18:08:31.183Z,101037.56
2023-01-12T18:11:34.851Z,101045.62
2023-01-12T18:14:40.694Z,101042.94
2023-01-12T18:17:44.244Z,101030.53
2023-01-12T18:20:48.822Z,101033.09
2023-01-12T18:23:54.085Z,101027.75
2023-01-12T18:26:57.451Z,101041.72
2023-01-12T18:30:00.916Z,101040.75
2023-01-12T18:33:05.584Z,101041.63
2023-01-12T18:36:17.366Z,101036.22
2023-01-12T18:39:21.398Z,101030.81
2023-01-12T18:42:43.753Z,101033.41
2023-01-12T18:45:47.166Z,101026.28
2023-01-12T18:48:51.188Z,101033.37
2023-01-12T18:52:14.851Z,101027.16
2023-01-12T18:55:19.645Z,101035.03
2023-01-12T18:58:28.964Z,101029.66
2023-01-12T19:01:33.185Z,101018.12
2023-01-12T19:04:56.943Z,101016.41
2023-01-12T19:08:23.093Z,101014.66
2023-01-12T19:11:27.562Z,101008.41
2023-01-12T19:14:50.623Z,101016.37
2023-01-12T19:17:54.371Z,101029.59
2023-01-12T19:21:22.656Z,101009.19
2023-01-12T19:24:45.281Z,101002.03
2023-01-12T19:28:08.097Z,100976.56
2023-01-12T19:31:15.272Z,101002.09
2023-01-12T19:34:21.547Z,101012.78
2023-01-12T19:37:26.318Z,100997.81
2023-01-12T19:40:44.028Z,100994.38
2023-01-12T19:43:48.589Z,100998.81
2023-01-12T19:46:53.036Z,101002.44
2023-01-12T19:49:56.837Z,100998.91
2023-01-12T19:53:02.072Z,100994.50
2023-01-12T19:56:13.528Z,100981.22
2023-01-12T19:59:18.213Z,100989.13
2023-01-12T20:02:22.527Z,100984.72
2023-01-12T20:05:26.942Z,100996.19
2023-01-12T20:08:30.312Z,100986.41
2023-01-12T20:11:35.724Z,100964.41
2023-01-12T20:14:40.030Z,100992.66
2023-01-12T20:17:47.963Z,100998.84
2023-01-12T20:20:54.001Z,100993.53
2023-01-12T20:23:58.326Z,100996.25
2023-01-12T20:27:02.317Z,101002.50
2023-01-12T20:30:11.279Z,100997.31
2023-01-12T20:33:15.653Z,101006.97
2023-01-12T20:36:19.823Z,100999.06
2023-01-12T20:39:24.318Z,101010.53
2023-01-12T20:42:31.646Z,101004.38
2023-01-12T20:45:35.338Z,101008.75
2023-01-12T20:48:43.652Z,101007.78
2023-01-12T20:51:48.677Z,101004.25
2023-01-12T20:54:53.696Z,101002.56
2023-01-12T20:57:57.390Z,101004.31
2023-01-12T21:01:01.978Z,101013.19
2023-01-12T21:04:05.187Z,101022.91
2023-01-12T21:07:09.282Z,101017.59
2023-01-12T21:10:12.599Z,101011.38
2023-01-12T21:13:16.425Z,101013.13
2023-01-12T21:16:20.575Z,101022.88
2023-01-12T21:19:24.161Z,101018.53
2023-01-12T21:22:27.463Z,101017.59
2023-01-12T21:25:31.173Z,101020.22
2023-01-12T21:28:37.899Z,100962.78
2023-01-12T21:31:41.710Z,101013.91
2023-01-12T21:34:45.145Z,101011.22
2023-01-12T21:37:48.667Z,100999.72
2023-01-12T21:40:52.213Z,101016.47
2023-01-12T21:43:55.665Z,101012.03
2023-01-12T21:46:58.741Z,101021.81
2023-01-12T21:50:02.236Z,101009.47
2023-01-12T21:53:07.304Z,101013.81
2023-01-12T21:56:13.298Z,101019.97
2023-01-12T21:59:18.578Z,101011.06
2023-01-12T22:02:23.257Z,100996.94
2023-01-12T22:05:26.925Z,100994.28
2023-01-12T22:08:30.175Z,100997.81
2023-01-12T22:11:33.559Z,100992.44
2023-01-12T22:14:36.618Z,100982.72
2023-01-12T22:17:40.422Z,100984.47
2023-01-12T22:20:44.888Z,100980.00
2023-01-12T22:23:49.327Z,100984.44
2023-01-12T22:26:52.877Z,100982.66
2023-01-12T22:29:57.645Z,100984.47
2023-01-12T22:33:00.925Z,100976.50
2023-01-12T22:36:07.130Z,100969.50
2023-01-12T22:39:13.977Z,100974.81
2023-01-12T22:42:21.588Z,100971.25
2023-01-12T22:45:24.867Z,100964.19
2023-01-12T22:48:30.180Z,100967.75
2023-01-12T22:51:39.184Z,100970.38
2023-01-12T22:54:42.854Z,100963.31
2023-01-12T22:57:46.185Z,100951.78
2023-01-12T23:00:52.270Z,100956.34
2023-01-12T23:03:57.086Z,100957.28
2023-01-12T23:07:00.652Z,100964.44
2023-01-12T23:10:04.851Z,100960.94
2023-01-12T23:13:19.082Z,100950.41
2023-01-12T23:16:23.362Z,100967.16
2023-01-12T23:19:27.048Z,100961.81
2023-01-12T23:22:31.848Z,100960.88
2023-01-12T23:25:38.093Z,100968.81
2023-01-12T23:28:47.530Z,100963.44
2023-01-12T23:31:51.361Z,100961.66
2023-01-12T23:34:54.688Z,100972.19
2023-01-12T23:37:58.288Z,100978.47
2023-01-12T23:41:17.590Z,100972.34
2023-01-12T23:44:21.180Z,100973.34
2023-01-12T23:47:28.963Z,100971.66
2023-01-12T23:50:34.634Z,100969.13
2023-01-12T23:53:38.357Z,100964.84
2023-01-12T23:56:41.854Z,100965.75
2023-01-12T23:59:45.168Z,100962.28
